createdAt,value
2023-02-22T00:00:43.009Z,19.50
2023-02-22T00:03:15.574Z,17.85
2023-02-22T00:05:47.206Z,11.57
2023-02-22T00:08:15.153Z,9.80
2023-02-22T00:10:42.272Z,14.27
2023-02-22T00:13:10.002Z,10.40
2023-02-22T00:15:37.169Z,15.07
2023-02-22T00:18:05.209Z,15.77
2023-02-22T00:20:32.353Z,9.32
2023-02-22T00:23:01.430Z,15.32
2023-02-22T00:25:28.588Z,10.27
2023-02-22T00:27:56.250Z,17.20
2023-02-22T00:30:25.120Z,14.63
2023-02-22T00:32:52.321Z,20.23
2023-02-22T00:35:19.972Z,23.05
2023-02-22T00:37:50.615Z,19.45
2023-02-22T00:40:18.930Z,19.58
2023-02-22T00:42:48.979Z,16.50
2023-02-22T00:45:17.232Z,18.55
2023-02-22T00:47:44.338Z,19.98
2023-02-22T00:50:11.521Z,14.20
2023-02-22T00:52:38.858Z,19.00
2023-02-22T00:55:06.554Z,18.52
2023-02-22T00:57:35.190Z,24.08
2023-02-22T01:00:11.904Z,16.60
2023-02-22T01:02:39.817Z,19.10
2023-02-22T01:05:07.877Z,12.68
2023-02-22T01:07:35.041Z,10.10
2023-02-22T01:10:02.839Z,16.05
2023-02-22T01:12:30.157Z,12.32
2023-02-22T01:14:58.175Z,14.27
2023-02-22T01:17:25.677Z,14.00
2023-02-22T01:19:54.015Z,15.13
2023-02-22T01:22:21.379Z,9.40
2023-02-22T01:24:49.120Z,19.13
2023-02-22T01:27:16.376Z,17.67
2023-02-22T01:29:43.542Z,14.90
2023-02-22T01:32:12.053Z,12.13
2023-02-22T01:34:39.542Z,13.83
2023-02-22T01:37:06.657Z,12.33
2023-02-22T01:39:33.964Z,10.10
2023-02-22T01:42:01.718Z,11.33
2023-02-22T01:44:32.926Z,16.20
2023-02-22T01:47:00.541Z,10.53
2023-02-22T01:49:28.727Z,15.40
2023-02-22T01:51:56.581Z,17.23
2023-02-22T01:54:28.377Z,18.00
2023-02-22T01:57:00.859Z,16.17
2023-02-22T01:59:28.979Z,15.97
2023-02-22T02:01:56.102Z,23.70
2023-02-22T02:04:26.531Z,17.53
2023-02-22T02:06:54.137Z,13.20
2023-02-22T02:09:41.507Z,17.57
2023-02-22T02:12:09.365Z,26.23
2023-02-22T02:14:40.449Z,16.43
2023-02-22T02:17:14.438Z,23.27
2023-02-22T02:19:50.525Z,19.97
2023-02-22T02:22:22.353Z,24.30
2023-02-22T02:25:07.832Z,26.30
2023-02-22T02:27:44.944Z,26.37
2023-02-22T02:30:14.891Z,26.70
2023-02-22T02:32:58.912Z,28.23
2023-02-22T02:35:29.159Z,21.03
2023-02-22T02:38:03.634Z,18.73
2023-02-22T02:40:35.949Z,21.40
2023-02-22T02:43:08.675Z,19.73
2023-02-22T02:45:37.471Z,15.80
2023-02-22T02:48:04.561Z,18.40
2023-02-22T02:50:36.418Z,20.83
2023-02-22T02:53:04.071Z,23.83
2023-02-22T02:55:31.196Z,22.37
2023-02-22T02:58:00.290Z,23.07
2023-02-22T03:00:28.142Z,23.57
2023-02-22T03:02:58.947Z,18.30
2023-02-22T03:05:41.121Z,18.63
2023-02-22T03:08:10.875Z,17.47
2023-02-22T03:10:53.663Z,36.50
2023-02-22T03:13:26.136Z,41.50
2023-02-22T03:16:05.899Z,46.13
2023-02-22T03:18:37.041Z,86.00
2023-02-22T03:21:22.864Z,88.93
2023-02-22T03:23:56.163Z,60.73
2023-02-22T03:26:35.559Z,60.53
2023-02-22T03:29:05.102Z,40.03
2023-02-22T03:31:33.909Z,38.37
2023-02-22T03:34:02.134Z,28.80
2023-02-22T03:36:29.919Z,36.00
2023-02-22T03:38:58.300Z,31.07
2023-02-22T03:41:25.665Z,29.30
2023-02-22T03:43:54.853Z,25.33
2023-02-22T03:46:22.130Z,24.23
2023-02-22T03:48:54.674Z,28.13
2023-02-22T03:51:22.195Z,27.40
2023-02-22T03:53:49.594Z,34.63
2023-02-22T03:56:21.650Z,42.27
2023-02-22T03:58:48.737Z,39.13
2023-02-22T04:01:16.145Z,35.60
2023-02-22T04:03:43.486Z,38.77
2023-02-22T04:06:10.650Z,32.13
2023-02-22T04:08:37.839Z,26.33
2023-02-22T04:11:05.079Z,29.40
2023-02-22T04:13:32.171Z,33.87
2023-02-22T04:15:59.412Z,29.47
2023-02-22T04:18:26.586Z,26.40
2023-02-22T04:20:53.707Z,29.57
2023-02-22T04:23:20.821Z,31.83
2023-02-22T04:25:48.008Z,23.70
2023-02-22T04:28:15.170Z,34.77
2023-02-22T04:30:43.860Z,37.33
2023-02-22T04:33:11.048Z,39.77
2023-02-22T04:35:38.239Z,35.17
2023-02-22T04:38:05.498Z,35.27
2023-02-22T04:40:32.638Z,40.60
2023-02-22T04:43:00.312Z,38.37
2023-02-22T04:45:27.491Z,44.27
2023-02-22T04:47:54.701Z,41.10
2023-02-22T04:50:21.792Z,43.60
2023-02-22T04:52:48.923Z,39.03
2023-02-22T04:55:16.677Z,37.53
2023-02-22T04:57:43.827Z,31.83
2023-02-22T05:00:11.218Z,37.27
2023-02-22T05:02:41.412Z,41.17
2023-02-22T05:05:08.654Z,36.60
2023-02-22T05:07:35.751Z,32.27
2023-02-22T05:10:02.999Z,34.00
2023-02-22T05:12:30.567Z,33.63
2023-02-22T05:14:57.662Z,31.47
2023-02-22T05:17:24.795Z,32.80
2023-02-22T05:19:51.920Z,30.57
2023-02-22T05:22:19.039Z,30.50
2023-02-22T05:24:46.155Z,28.43
2023-02-22T05:27:13.252Z,33.60
2023-02-22T05:29:40.645Z,40.67
2023-02-22T05:32:07.831Z,40.33
2023-02-22T05:34:35.011Z,55.00
2023-02-22T05:37:03.425Z,42.40
2023-02-22T05:39:30.831Z,52.20
2023-02-22T05:41:58.007Z,45.17
2023-02-22T05:44:25.282Z,57.73
2023-02-22T05:46:52.517Z,56.50
2023-02-22T05:49:19.665Z,57.13
2023-02-22T05:51:47.231Z,60.87
2023-02-22T05:54:14.386Z,61.03
2023-02-22T05:56:41.532Z,62.37
2023-02-22T05:59:08.662Z,71.50
2023-02-22T06:01:35.794Z,62.87
2023-02-22T06:04:03.207Z,47.40
2023-02-22T06:06:30.304Z,44.53
2023-02-22T06:08:57.976Z,50.67
2023-02-22T06:11:25.106Z,49.17
2023-02-22T06:13:52.620Z,51.73
2023-02-22T06:16:21.704Z,49.40
2023-02-22T06:18:49.263Z,62.20
2023-02-22T06:21:17.527Z,48.77
2023-02-22T06:23:44.889Z,44.50
2023-02-22T06:26:12.022Z,44.37
2023-02-22T06:28:39.235Z,54.93
2023-02-22T06:31:06.592Z,48.40
2023-02-22T06:33:33.717Z,49.37
2023-02-22T06:36:00.836Z,46.37
2023-02-22T06:38:28.009Z,53.63
2023-02-22T06:40:58.239Z,48.63
2023-02-22T06:43:25.746Z,50.90
2023-02-22T06:45:53.218Z,46.83
2023-02-22T06:48:20.393Z,48.37
2023-02-22T06:50:47.482Z,44.60
2023-02-22T06:53:14.600Z,35.20
2023-02-22T06:55:41.708Z,33.40
2023-02-22T06:58:08.793Z,36.07
2023-02-22T07:00:35.978Z,39.77
2023-02-22T07:03:03.451Z,40.60
2023-02-22T07:05:30.635Z,45.43
2023-02-22T07:08:02.810Z,58.53
2023-02-22T07:10:30.486Z,60.07
2023-02-22T07:12:57.620Z,59.40
2023-02-22T07:15:25.420Z,59.50
2023-02-22T07:17:52.682Z,99.45
2023-02-22T07:20:20.653Z,78.50
2023-02-22T07:22:48.147Z,75.70
2023-02-22T07:25:15.286Z,66.60
2023-02-22T07:27:42.661Z,62.77
2023-02-22T07:30:16.208Z,39.23
2023-02-22T07:32:43.779Z,36.08
2023-02-22T07:35:43.270Z,36.97
2023-02-22T07:38:10.398Z,41.10
2023-02-22T07:40:37.902Z,40.60
2023-02-22T07:43:15.674Z,42.93
2023-02-22T07:45:42.859Z,42.53
2023-02-22T07:48:12.502Z,39.63
2023-02-22T07:50:39.794Z,52.63
2023-02-22T07:53:07.809Z,46.50
2023-02-22T07:55:34.942Z,50.80
2023-02-22T07:58:02.961Z,49.80
2023-02-22T08:00:30.856Z,37.83
2023-02-22T08:02:58.236Z,39.22
2023-02-22T08:05:25.840Z,351.70
2023-02-22T08:07:53.069Z,130.65
2023-02-22T08:10:20.792Z,78.20
2023-02-22T08:12:49.412Z,121.40
2023-02-22T08:15:17.801Z,65.82
2023-02-22T08:17:44.926Z,42.00
2023-02-22T08:20:12.095Z,28.65
2023-02-22T08:22:40.157Z,39.00
2023-02-22T08:25:07.553Z,76.38
2023-02-22T08:27:34.781Z,43.05
2023-02-22T08:30:01.903Z,55.85
2023-02-22T08:32:29.260Z,43.35
2023-02-22T08:34:56.475Z,27.95
2023-02-22T08:37:23.578Z,25.77
2023-02-22T08:39:50.665Z,36.47
2023-02-22T08:42:17.795Z,35.65
2023-02-22T08:44:44.907Z,34.05
2023-02-22T08:47:12.120Z,41.42
2023-02-22T08:49:39.266Z,34.08
2023-02-22T08:52:06.376Z,32.33
2023-02-22T08:54:33.532Z,25.40
2023-02-22T08:57:00.676Z,34.88
2023-02-22T08:59:27.779Z,35.47
2023-02-22T09:01:55.453Z,36.67
2023-02-22T09:04:22.630Z,30.17
2023-02-22T09:06:51.818Z,27.38
2023-02-22T09:09:21.281Z,20.92
2023-02-22T09:11:53.126Z,25.48
2023-02-22T09:14:20.373Z,25.85
2023-02-22T09:16:47.497Z,23.05
2023-02-22T09:19:14.689Z,19.42
2023-02-22T09:21:41.786Z,15.52
2023-02-22T09:24:08.919Z,18.98
2023-02-22T09:26:39.359Z,13.57
2023-02-22T09:29:10.538Z,16.83
2023-02-22T09:31:38.197Z,11.88
2023-02-22T09:34:13.624Z,9.68
2023-02-22T09:36:43.991Z,10.82
2023-02-22T09:39:11.387Z,12.85
2023-02-22T09:41:50.584Z,13.15
2023-02-22T09:44:23.800Z,16.80
2023-02-22T09:46:51.140Z,20.38
2023-02-22T09:49:19.385Z,18.55
2023-02-22T09:51:49.365Z,16.90
2023-02-22T09:54:34.879Z,16.08
2023-02-22T09:57:03.268Z,16.33
2023-02-22T09:59:34.350Z,15.80
2023-02-22T10:02:06.668Z,12.45
2023-02-22T10:04:38.399Z,14.07
2023-02-22T10:07:19.162Z,14.15
2023-02-22T10:09:46.492Z,19.48
2023-02-22T10:12:35.777Z,17.27
2023-02-22T10:15:02.908Z,15.90
2023-02-22T10:17:37.223Z,15.02
2023-02-22T10:20:08.623Z,13.93
2023-02-22T10:22:56.636Z,14.32
2023-02-22T10:25:27.384Z,16.08
2023-02-22T10:28:04.519Z,12.68
2023-02-22T10:30:34.341Z,13.20
2023-02-22T10:33:21.998Z,15.23
2023-02-22T10:35:49.135Z,21.55
2023-02-22T10:38:42.262Z,13.95
2023-02-22T10:41:09.433Z,18.13
2023-02-22T10:43:40.921Z,12.50
2023-02-22T10:46:08.526Z,11.75
2023-02-22T10:48:36.979Z,8.60
2023-02-22T10:51:04.997Z,12.85
2023-02-22T10:53:32.571Z,11.50
2023-02-22T10:56:06.199Z,16.52
2023-02-22T10:58:43.143Z,23.50
2023-02-22T11:01:29.230Z,11.60
2023-02-22T11:04:15.157Z,14.88
2023-02-22T11:06:44.413Z,12.43
2023-02-22T11:09:15.924Z,9.15
2023-02-22T11:11:47.017Z,12.32
2023-02-22T11:14:34.437Z,10.27
2023-02-22T11:17:01.793Z,14.40
2023-02-22T11:19:29.408Z,12.70
2023-02-22T11:21:57.441Z,11.70
2023-02-22T11:24:24.761Z,9.93
2023-02-22T11:26:52.818Z,9.13
2023-02-22T11:29:27.364Z,10.38
2023-02-22T11:31:54.572Z,8.73
2023-02-22T11:34:34.320Z,14.93
2023-02-22T11:37:22.196Z,10.27
2023-02-22T11:39:51.358Z,14.27
2023-02-22T11:42:23.265Z,14.15
2023-02-22T11:44:50.484Z,13.32
2023-02-22T11:47:17.660Z,11.07
2023-02-22T11:49:45.777Z,11.23
2023-02-22T11:52:27.144Z,10.95
2023-02-22T11:55:03.617Z,9.02
2023-02-22T11:57:36.201Z,12.60
2023-02-22T12:00:24.749Z,13.48
2023-02-22T12:03:10.286Z,12.43
2023-02-22T12:05:59.521Z,10.15
2023-02-22T12:08:32.953Z,18.98
2023-02-22T12:11:13.057Z,13.25
2023-02-22T12:13:46.740Z,11.40
2023-02-22T12:16:26.101Z,12.20
2023-02-22T12:18:59.730Z,13.52
2023-02-22T12:21:29.799Z,12.00
2023-02-22T12:24:04.804Z,13.25
2023-02-22T12:26:41.606Z,10.90
2023-02-22T12:29:27.647Z,12.80
2023-02-22T12:32:00.441Z,19.33
2023-02-22T12:34:32.543Z,25.42
2023-02-22T12:37:18.442Z,11.90
2023-02-22T12:39:53.211Z,15.73
2023-02-22T12:42:27.111Z,20.58
2023-02-22T12:44:59.269Z,23.75
2023-02-22T12:47:29.794Z,15.90
2023-02-22T12:49:59.071Z,11.10
2023-02-22T12:52:45.040Z,15.30
2023-02-22T12:55:12.210Z,20.65
2023-02-22T12:57:49.888Z,16.02
2023-02-22T13:00:17.845Z,21.63
2023-02-22T13:02:46.282Z,19.52
2023-02-22T13:05:17.937Z,21.33
2023-02-22T13:08:05.066Z,22.85
2023-02-22T13:10:35.015Z,21.05
2023-02-22T13:13:11.060Z,17.35
2023-02-22T13:15:41.628Z,21.63
2023-02-22T13:18:11.504Z,14.43
2023-02-22T13:20:41.362Z,17.52
2023-02-22T13:23:14.636Z,13.85
2023-02-22T13:25:41.758Z,24.13
2023-02-22T13:28:29.126Z,21.08
2023-02-22T13:31:02.133Z,19.17
2023-02-22T13:33:51.633Z,33.25
2023-02-22T13:36:30.967Z,28.88
2023-02-22T13:39:03.962Z,27.10
2023-02-22T13:41:50.958Z,30.45
2023-02-22T13:44:27.426Z,22.75
2023-02-22T13:46:57.445Z,25.13
2023-02-22T13:49:30.508Z,23.25
2023-02-22T13:51:59.021Z,28.55
2023-02-22T13:54:35.396Z,30.02
2023-02-22T13:57:03.174Z,23.00
2023-02-22T13:59:36.142Z,31.10
2023-02-22T14:02:04.446Z,27.23
2023-02-22T14:04:31.557Z,28.92
2023-02-22T14:07:05.739Z,17.48
2023-02-22T14:09:48.831Z,43.42
2023-02-22T14:12:31.407Z,37.42
2023-02-22T14:15:30.118Z,33.60
2023-02-22T14:17:57.784Z,15.43
2023-02-22T14:20:32.514Z,20.40
2023-02-22T14:23:19.962Z,36.65
2023-02-22T14:25:47.197Z,44.40
2023-02-22T14:28:33.119Z,28.45
2023-02-22T14:31:07.403Z,25.75
2023-02-22T14:33:53.238Z,36.05
2023-02-22T14:36:46.695Z,39.15
2023-02-22T14:39:33.124Z,36.03
2023-02-22T14:42:01.487Z,37.22
2023-02-22T14:44:32.156Z,46.80
2023-02-22T14:47:02.294Z,35.85
2023-02-22T14:49:29.549Z,27.10
2023-02-22T14:51:58.602Z,31.58
2023-02-22T14:54:25.764Z,31.48
2023-02-22T14:57:14.749Z,24.15
2023-02-22T14:59:46.877Z,29.65
2023-02-22T15:02:14.914Z,69.22
2023-02-22T15:04:45.165Z,49.55
2023-02-22T15:07:27.488Z,69.85
2023-02-22T15:10:17.492Z,64.75
2023-02-22T15:12:51.330Z,78.40
2023-02-22T15:15:21.882Z,76.63
2023-02-22T15:17:52.857Z,54.35
2023-02-22T15:20:20.720Z,80.50
2023-02-22T15:22:47.830Z,73.93
2023-02-22T15:25:15.026Z,86.90
2023-02-22T15:27:44.348Z,241.82
2023-02-22T15:30:26.575Z,439.25
2023-02-22T15:33:03.967Z,505.98
2023-02-22T15:35:33.355Z,464.63
2023-02-22T15:38:01.058Z,393.75
2023-02-22T15:40:33.133Z,157.90
2023-02-22T15:43:02.376Z,131.50
2023-02-22T15:45:29.787Z,113.00
2023-02-22T15:47:58.658Z,114.80
2023-02-22T15:50:26.023Z,90.57
2023-02-22T15:53:00.260Z,103.18
2023-02-22T15:55:28.700Z,106.22
2023-02-22T15:57:56.143Z,124.50
2023-02-22T16:00:33.960Z,109.10
2023-02-22T16:03:01.093Z,92.72
2023-02-22T16:06:03.426Z,65.82
2023-02-22T16:08:52.630Z,41.15
2023-02-22T16:11:22.363Z,42.35
2023-02-22T16:13:53.343Z,44.20
2023-02-22T16:16:25.208Z,37.70
2023-02-22T16:18:52.464Z,39.03
2023-02-22T16:21:21.733Z,41.00
2023-02-22T16:23:52.752Z,34.50
2023-02-22T16:26:22.957Z,39.33
2023-02-22T16:28:53.827Z,37.30
2023-02-22T16:31:33.591Z,35.63
2023-02-22T16:34:02.310Z,37.67
2023-02-22T16:36:38.568Z,36.22
2023-02-22T16:39:07.155Z,37.75
2023-02-22T16:41:34.322Z,42.25
2023-02-22T16:44:01.842Z,43.22
2023-02-22T16:46:29.769Z,41.78
2023-02-22T16:49:03.258Z,36.50
2023-02-22T16:51:30.429Z,43.28
2023-02-22T16:53:57.548Z,35.55
2023-02-22T16:56:30.517Z,37.40
2023-02-22T16:58:58.125Z,34.15
2023-02-22T17:01:25.282Z,37.75
2023-02-22T17:03:53.893Z,55.45
2023-02-22T17:06:21.294Z,43.63
2023-02-22T17:08:51.860Z,46.53
2023-02-22T17:11:19.063Z,82.35
2023-02-22T17:13:50.473Z,82.45
2023-02-22T17:16:17.988Z,83.32
2023-02-22T17:18:45.931Z,78.03
2023-02-22T17:21:13.142Z,108.60
2023-02-22T17:23:40.680Z,109.55
2023-02-22T17:26:07.778Z,116.53
2023-02-22T17:28:34.923Z,125.07
2023-02-22T17:31:02.454Z,102.32
2023-02-22T17:33:30.993Z,101.90
2023-02-22T17:35:58.461Z,116.18
2023-02-22T17:38:28.809Z,101.97
2023-02-22T17:40:55.979Z,98.03
2023-02-22T17:43:23.126Z,100.47
2023-02-22T17:45:50.286Z,99.68
2023-02-22T17:48:17.809Z,105.40
2023-02-22T17:50:46.144Z,107.97
2023-02-22T17:53:13.528Z,136.95
2023-02-22T17:55:41.232Z,130.75
2023-02-22T17:58:14.395Z,109.55
2023-02-22T18:00:42.715Z,119.82
2023-02-22T18:03:11.079Z,208.38
2023-02-22T18:05:41.708Z,188.07
2023-02-22T18:08:08.943Z,219.53
2023-02-22T18:10:36.170Z,325.07
2023-02-22T18:13:04.135Z,206.83
2023-02-22T18:15:35.525Z,156.87
2023-02-22T18:18:03.208Z,138.90
2023-02-22T18:20:38.310Z,115.50
2023-02-22T18:23:08.492Z,131.50
2023-02-22T18:25:36.155Z,137.70
2023-02-22T18:28:04.656Z,141.43
2023-02-22T18:30:31.827Z,155.97
2023-02-22T18:32:59.003Z,158.30
2023-02-22T18:35:26.186Z,136.23
2023-02-22T18:37:53.289Z,138.37
2023-02-22T18:40:20.452Z,128.20
2023-02-22T18:42:47.693Z,106.83
2023-02-22T18:45:14.880Z,98.43
2023-02-22T18:47:42.805Z,99.20
2023-02-22T18:50:13.166Z,99.13
2023-02-22T18:52:46.328Z,98.77
2023-02-22T18:55:14.210Z,93.53
2023-02-22T18:57:41.409Z,128.07
2023-02-22T19:00:09.640Z,100.03
2023-02-22T19:02:36.887Z,102.30
2023-02-22T19:05:06.068Z,133.50
2023-02-22T19:07:34.156Z,116.33
2023-02-22T19:10:02.561Z,85.80
2023-02-22T19:12:31.362Z,89.40
2023-02-22T19:14:59.388Z,93.87
2023-02-22T19:17:26.992Z,71.45
2023-02-22T19:19:54.161Z,80.10
2023-02-22T19:22:21.260Z,82.53
2023-02-22T19:24:48.385Z,83.20
2023-02-22T19:27:15.562Z,70.63
2023-02-22T19:29:42.720Z,86.63
2023-02-22T19:32:11.375Z,81.33
2023-02-22T19:34:38.627Z,76.17
2023-02-22T19:37:06.854Z,73.73
2023-02-22T19:39:34.774Z,75.77
2023-02-22T19:42:02.051Z,73.83
2023-02-22T19:44:29.191Z,64.37
2023-02-22T19:46:56.359Z,68.97
2023-02-22T19:51:58.100Z,71.00
2023-02-22T19:54:25.294Z,78.87
2023-02-22T19:56:52.476Z,69.97
2023-02-22T19:59:23.007Z,68.27
2023-02-22T20:01:52.641Z,91.80
2023-02-22T20:04:22.989Z,100.87
2023-02-22T20:06:51.905Z,99.47
2023-02-22T20:09:19.860Z,132.70
2023-02-22T20:11:47.368Z,126.40
2023-02-22T20:14:17.239Z,101.93
2023-02-22T20:16:44.484Z,125.70
2023-02-22T20:19:13.544Z,133.97
2023-02-22T20:21:40.700Z,129.10
2023-02-22T20:24:08.529Z,109.23
2023-02-22T20:26:36.723Z,90.30
2023-02-22T20:29:04.200Z,93.53
2023-02-22T20:31:31.733Z,92.13
2023-02-22T20:33:59.595Z,86.40
2023-02-22T20:36:27.456Z,93.50
2023-02-22T20:38:55.224Z,94.00
2023-02-22T20:41:29.147Z,97.50
2023-02-22T20:43:56.485Z,111.40
2023-02-22T20:46:23.966Z,109.57
2023-02-22T20:48:55.167Z,107.57
2023-02-22T20:51:22.280Z,104.07
2023-02-22T20:53:50.224Z,136.87
2023-02-22T20:56:18.387Z,132.27
2023-02-22T20:58:45.554Z,144.13
2023-02-22T21:01:13.789Z,138.60
2023-02-22T21:03:44.315Z,140.23
2023-02-22T21:06:14.808Z,120.67
2023-02-22T21:08:45.505Z,112.00
2023-02-22T21:11:13.093Z,107.77
2023-02-22T21:13:40.565Z,117.73
2023-02-22T21:16:07.911Z,111.00
2023-02-22T21:18:35.015Z,97.67
2023-02-22T21:21:10.432Z,118.20
2023-02-22T21:23:37.901Z,114.17
2023-02-22T21:26:05.155Z,94.27
2023-02-22T21:28:50.510Z,101.07
2023-02-22T21:31:18.488Z,119.87
2023-02-22T21:33:46.088Z,115.77
2023-02-22T21:36:13.695Z,108.23
2023-02-22T21:38:41.506Z,117.37
2023-02-22T21:41:11.003Z,115.00
2023-02-22T21:43:38.240Z,121.17
2023-02-22T21:46:05.682Z,109.13
2023-02-22T21:48:34.702Z,112.87
2023-02-22T21:51:14.121Z,115.33
2023-02-22T21:53:48.080Z,125.93
2023-02-22T21:56:15.671Z,114.50
2023-02-22T21:58:43.725Z,114.87
2023-02-22T22:01:11.061Z,108.43
2023-02-22T22:03:38.182Z,125.37
2023-02-22T22:06:10.840Z,118.10
2023-02-22T22:08:40.095Z,134.57
2023-02-22T22:11:10.614Z,116.83
2023-02-22T22:13:39.185Z,123.10
2023-02-22T22:16:10.616Z,123.07
2023-02-22T22:18:37.873Z,142.40
2023-02-22T22:21:12.512Z,177.67
2023-02-22T22:23:39.736Z,155.47
2023-02-22T22:26:13.237Z,161.00
2023-02-22T22:28:41.142Z,155.37
2023-02-22T22:31:08.401Z,151.33
2023-02-22T22:33:36.650Z,145.43
2023-02-22T22:36:04.762Z,144.20
2023-02-22T22:38:31.882Z,129.00
2023-02-22T22:41:01.061Z,130.23
2023-02-22T22:43:29.305Z,132.50
2023-02-22T22:45:59.425Z,109.57
2023-02-22T22:48:27.271Z,93.60
2023-02-22T22:51:02.569Z,101.70
2023-02-22T22:53:31.185Z,90.07
2023-02-22T22:56:03.738Z,112.73
2023-02-22T22:58:32.054Z,97.90
2023-02-22T23:01:01.588Z,96.83
2023-02-22T23:03:29.468Z,89.43
2023-02-22T23:05:56.672Z,91.20
2023-02-22T23:08:29.228Z,93.63
2023-02-22T23:10:57.102Z,89.20
2023-02-22T23:13:25.009Z,81.00
2023-02-22T23:15:54.718Z,81.47
2023-02-22T23:18:21.956Z,79.87
2023-02-22T23:20:55.022Z,98.70
2023-02-22T23:23:23.511Z,93.03
2023-02-22T23:25:50.797Z,67.27
2023-02-22T23:28:18.477Z,64.30
2023-02-22T23:30:45.688Z,72.83
2023-02-22T23:33:12.965Z,75.73
2023-02-22T23:35:42.388Z,83.13
2023-02-22T23:38:11.166Z,75.77
2023-02-22T23:40:38.917Z,83.97
2023-02-22T23:43:07.582Z,90.97
2023-02-22T23:45:38.575Z,113.70
2023-02-22T23:48:06.836Z,116.93
2023-02-22T23:50:36.363Z,115.10
2023-02-22T23:53:03.663Z,130.97
2023-02-22T23:55:31.620Z,121.60
2023-02-22T23:57:59.658Z,115.77
